createdAt,value
2023-04-20T00:03:35.766Z,9.68
2023-04-20T00:08:39.579Z,12.90
2023-04-20T00:13:44.522Z,13.90
2023-04-20T00:23:51.993Z,10.50
2023-04-20T00:28:56.896Z,10.00
2023-04-20T00:34:00.407Z,12.50
2023-04-20T00:39:05.206Z,13.15
2023-04-20T00:49:15.871Z,13.65
2023-04-20T00:54:19.545Z,11.23
2023-04-20T00:59:24.938Z,10.02
2023-04-20T01:04:28.702Z,8.52
2023-04-20T01:09:32.226Z,11.75
2023-04-20T01:14:37.168Z,13.73
2023-04-20T01:19:41.100Z,12.27
2023-04-20T01:24:46.185Z,10.65
2023-04-20T01:29:49.691Z,14.38
2023-04-20T01:34:53.154Z,11.07
2023-04-20T01:39:58.211Z,11.20
2023-04-20T01:45:01.895Z,12.85
2023-04-20T01:50:08.469Z,12.13
2023-04-20T01:55:13.361Z,12.27
2023-04-20T02:05:20.681Z,13.55
2023-04-20T02:10:25.944Z,9.30
2023-04-20T02:15:30.038Z,12.93
2023-04-20T02:20:33.467Z,12.57
2023-04-20T02:25:38.389Z,9.65
2023-04-20T02:30:41.872Z,14.75
2023-04-20T02:35:45.689Z,17.73
2023-04-20T02:40:50.608Z,10.95
2023-04-20T02:50:57.625Z,13.45
2023-04-20T02:56:02.539Z,13.40
2023-04-20T03:06:09.914Z,11.60
2023-04-20T03:11:14.786Z,13.23
2023-04-20T03:16:18.558Z,12.88
2023-04-20T03:21:22.028Z,16.00
2023-04-20T03:26:27.069Z,13.02
2023-04-20T03:31:30.573Z,18.58
2023-04-20T03:36:34.530Z,13.25
2023-04-20T03:41:39.850Z,13.15
2023-04-20T03:46:43.330Z,16.77
2023-04-20T03:51:47.045Z,10.85
2023-04-20T03:56:51.925Z,8.95
2023-04-20T04:01:55.529Z,13.75
2023-04-20T04:06:59.029Z,16.23
2023-04-20T04:12:04.770Z,11.23
2023-04-20T04:17:08.990Z,10.82
2023-04-20T04:22:12.631Z,13.85
2023-04-20T04:27:17.662Z,13.37
2023-04-20T04:32:21.802Z,12.95
2023-04-20T04:37:25.326Z,10.88
2023-04-20T04:42:30.351Z,11.67
2023-04-20T04:47:36.554Z,10.13
2023-04-20T04:52:40.193Z,7.40
2023-04-20T04:57:45.129Z,9.73
2023-04-20T05:02:48.896Z,9.35
2023-04-20T05:07:52.626Z,8.50
2023-04-20T05:18:02.946Z,7.78
2023-04-20T05:23:06.609Z,7.10
2023-04-20T05:28:11.849Z,8.30
2023-04-20T05:33:15.799Z,6.95
2023-04-20T05:38:19.354Z,6.15
2023-04-20T05:43:24.314Z,7.07
2023-04-20T05:48:30.073Z,8.98
2023-04-20T05:53:33.813Z,5.40
2023-04-20T05:58:39.119Z,8.50
2023-04-20T06:03:43.173Z,6.88
2023-04-20T06:08:46.878Z,7.90
2023-04-20T06:13:51.765Z,8.63
2023-04-20T06:18:55.360Z,8.07
2023-04-20T06:23:59.068Z,6.75
2023-04-20T06:29:04.029Z,9.70
2023-04-20T06:34:07.680Z,12.27
2023-04-20T06:39:12.143Z,7.82
2023-04-20T06:44:17.181Z,6.80
2023-04-20T06:49:20.877Z,9.13
2023-04-20T06:54:24.473Z,11.18
2023-04-20T06:59:29.390Z,5.88
2023-04-20T07:04:33.310Z,7.90
2023-04-20T07:09:36.974Z,6.70
2023-04-20T07:14:42.092Z,6.88
2023-04-20T07:19:45.791Z,5.78
2023-04-20T07:24:49.338Z,7.20
2023-04-20T07:29:54.330Z,8.00
2023-04-20T07:34:57.901Z,5.82
2023-04-20T07:40:01.690Z,6.20
2023-04-20T07:45:10.810Z,5.70
2023-04-20T07:50:14.846Z,8.80
2023-04-20T07:55:19.169Z,5.03
2023-04-20T08:00:25.699Z,8.43
2023-04-20T08:05:29.794Z,7.93
2023-04-20T08:10:33.480Z,9.98
2023-04-20T08:15:38.486Z,6.22
2023-04-20T08:20:42.222Z,11.48
2023-04-20T08:25:45.746Z,7.68
2023-04-20T08:30:51.406Z,5.53
2023-04-20T08:35:54.849Z,6.50
2023-04-20T08:40:58.390Z,10.65
2023-04-20T08:46:04.023Z,11.68
2023-04-20T08:51:07.785Z,8.02
2023-04-20T08:56:11.606Z,7.82
2023-04-20T09:01:22.684Z,5.75
2023-04-20T09:06:32.379Z,6.75
2023-04-20T09:11:36.022Z,6.55
2023-04-20T09:16:51.479Z,5.75
2023-04-20T09:21:57.911Z,5.68
2023-04-20T09:27:02.636Z,6.57
2023-04-20T09:32:07.875Z,7.55
2023-04-20T09:37:12.118Z,6.97
2023-04-20T09:42:16.807Z,6.80
2023-04-20T09:47:26.123Z,8.07
2023-04-20T09:52:29.857Z,8.07
2023-04-20T09:57:34.236Z,5.80
2023-04-20T10:07:42.968Z,5.55
2023-04-20T10:12:51.038Z,9.75
2023-04-20T10:17:56.556Z,4.45
2023-04-20T10:23:09.864Z,7.63
2023-04-20T10:28:13.937Z,6.20
2023-04-20T10:33:19.353Z,6.28
2023-04-20T10:38:32.853Z,7.18
2023-04-20T10:43:39.154Z,7.65
2023-04-20T10:48:52.877Z,5.47
2023-04-20T10:54:05.230Z,6.33
2023-04-20T10:59:09.894Z,9.07
2023-04-20T11:04:18.455Z,6.30
2023-04-20T11:09:26.353Z,5.45
2023-04-20T11:14:30.599Z,7.13
2023-04-20T11:19:37.248Z,5.97
2023-04-20T11:24:42.960Z,7.60
2023-04-20T11:29:46.516Z,9.30
2023-04-20T11:35:06.505Z,4.67
2023-04-20T11:40:12.163Z,7.00
2023-04-20T11:45:15.915Z,5.95
2023-04-20T11:50:21.368Z,5.87
2023-04-20T11:55:25.105Z,5.35
2023-04-20T12:00:28.875Z,8.43
2023-04-20T12:05:34.082Z,5.32
2023-04-20T12:10:37.644Z,4.32
2023-04-20T12:15:41.377Z,5.73
2023-04-20T12:20:47.380Z,5.75
2023-04-20T12:25:50.975Z,8.18
2023-04-20T12:30:54.544Z,7.03
2023-04-20T12:35:59.490Z,6.90
2023-04-20T12:41:04.314Z,6.30
2023-04-20T12:46:08.104Z,6.95
2023-04-20T12:51:13.585Z,6.63
2023-04-20T12:56:17.301Z,5.88
2023-04-20T13:01:20.910Z,6.70
2023-04-20T13:06:26.616Z,7.63
2023-04-20T13:11:31.283Z,6.75
2023-04-20T13:21:39.409Z,8.05
2023-04-20T13:26:42.886Z,5.25
2023-04-20T13:31:47.744Z,13.75
2023-04-20T13:36:52.865Z,7.45
2023-04-20T13:41:59.248Z,6.60
2023-04-20T13:47:02.896Z,8.52
2023-04-20T13:52:08.017Z,7.97
2023-04-20T13:57:11.927Z,7.60
2023-04-20T14:02:15.908Z,6.63
2023-04-20T14:12:26.616Z,6.80
2023-04-20T14:17:30.264Z,6.90
2023-04-20T14:22:36.826Z,6.23
2023-04-20T14:27:40.346Z,6.97
2023-04-20T14:32:54.088Z,9.35
2023-04-20T14:37:58.996Z,4.93
2023-04-20T14:43:02.553Z,6.85
2023-04-20T14:48:07.104Z,5.40
2023-04-20T14:53:15.244Z,4.72
2023-04-20T14:58:19.102Z,7.28
2023-04-20T15:03:22.978Z,4.85
2023-04-20T15:08:28.326Z,6.53
2023-04-20T15:13:31.888Z,4.57
2023-04-20T15:18:35.468Z,5.47
2023-04-20T15:23:40.406Z,6.25
2023-04-20T15:28:43.950Z,5.70
2023-04-20T15:33:48.142Z,6.30
2023-04-20T15:38:54.530Z,10.98
2023-04-20T15:43:58.948Z,7.95
2023-04-20T15:49:02.629Z,5.15
2023-04-20T15:54:07.655Z,4.87
2023-04-20T15:59:11.129Z,7.07
2023-04-20T16:04:15.092Z,12.05
2023-04-20T16:09:21.697Z,13.85
2023-04-20T16:14:26.573Z,12.27
2023-04-20T16:19:30.302Z,11.80
2023-04-20T16:24:35.476Z,11.17
2023-04-20T16:29:38.984Z,9.98
2023-04-20T16:34:42.453Z,10.05
2023-04-20T16:39:47.748Z,8.43
2023-04-20T16:44:51.358Z,8.63
2023-04-20T16:49:54.929Z,11.60
2023-04-20T16:54:59.821Z,11.65
2023-04-20T17:00:06.175Z,17.55
2023-04-20T17:05:10.888Z,16.38
2023-04-20T17:10:16.188Z,20.63
2023-04-20T17:15:19.892Z,18.88
2023-04-20T17:20:23.810Z,24.08
2023-04-20T17:25:28.919Z,20.07
2023-04-20T17:30:32.635Z,17.25
2023-04-20T17:35:38.054Z,22.20
2023-04-20T17:40:43.372Z,22.98
2023-04-20T17:45:49.614Z,18.42
2023-04-20T17:50:53.249Z,16.90
2023-04-20T17:55:58.146Z,16.55
2023-04-20T18:01:01.694Z,22.20
2023-04-20T18:06:05.571Z,15.48
2023-04-20T18:11:10.745Z,20.63
2023-04-20T18:16:14.388Z,19.05
2023-04-20T18:21:17.941Z,25.45
2023-04-20T18:26:23.822Z,16.45
2023-04-20T18:31:27.867Z,21.08
2023-04-20T18:36:32.281Z,17.50
2023-04-20T18:41:37.219Z,22.10
2023-04-20T18:46:42.293Z,18.42
2023-04-20T18:51:45.926Z,16.63
2023-04-20T18:56:51.019Z,22.02
2023-04-20T19:01:54.640Z,20.48
2023-04-20T19:06:58.219Z,24.73
2023-04-20T19:12:03.398Z,29.00
2023-04-20T19:17:08.299Z,27.23
2023-04-20T19:27:16.571Z,18.38
2023-04-20T19:32:20.286Z,18.85
2023-04-20T19:37:23.860Z,27.20
2023-04-20T19:42:28.735Z,17.25
2023-04-20T19:52:36.165Z,19.48
2023-04-20T19:57:41.220Z,19.37
2023-04-20T20:02:45.458Z,19.00
2023-04-20T20:07:49.152Z,27.30
2023-04-20T20:12:54.086Z,25.55
2023-04-20T20:23:02.344Z,25.63
2023-04-20T20:28:07.320Z,15.93
2023-04-20T20:38:13.974Z,19.10
2023-04-20T20:43:19.249Z,11.63
2023-04-20T20:48:22.849Z,14.18
2023-04-20T20:53:26.611Z,13.73
2023-04-20T20:58:31.602Z,12.07
2023-04-20T21:08:38.715Z,12.77
2023-04-20T21:13:43.676Z,14.07
2023-04-20T21:18:47.380Z,13.13
2023-04-20T21:23:51.560Z,11.30
2023-04-20T21:28:56.422Z,11.03
2023-04-20T21:39:03.895Z,8.50
2023-04-20T21:44:08.819Z,13.63
2023-04-20T21:54:15.418Z,12.38
2023-04-20T21:59:20.609Z,10.43
2023-04-20T22:04:25.883Z,8.20
2023-04-20T22:09:30.279Z,11.50
2023-04-20T22:14:35.198Z,9.73
2023-04-20T22:24:42.105Z,13.25
2023-04-20T22:29:47.000Z,9.20
2023-04-20T22:39:53.749Z,7.07
2023-04-20T22:44:58.673Z,9.00
2023-04-20T22:55:07.704Z,16.08
2023-04-20T23:00:14.097Z,9.65
2023-04-20T23:05:20.529Z,13.23
2023-04-20T23:10:28.724Z,12.60
2023-04-20T23:15:33.707Z,11.52
2023-04-20T23:20:38.994Z,10.95
2023-04-20T23:25:42.685Z,13.43
2023-04-20T23:30:47.617Z,29.63
2023-04-20T23:40:54.295Z,11.10
2023-04-20T23:45:59.189Z,11.43
2023-04-20T23:56:06.869Z,15.30
